createdAt,value
2018-06-24T00:00:44.556Z,8.84
2018-06-24T00:01:44.538Z,8.85
2018-06-24T00:02:44.531Z,8.85
2018-06-24T00:03:44.519Z,8.82
2018-06-24T00:04:44.516Z,8.92
2018-06-24T00:05:44.500Z,8.89
2018-06-24T00:06:44.488Z,8.91
2018-06-24T00:07:44.493Z,8.88
2018-06-24T00:08:44.461Z,8.84
2018-06-24T00:09:44.458Z,8.84
2018-06-24T00:10:44.446Z,8.88
2018-06-24T00:11:44.438Z,8.85
2018-06-24T00:12:44.453Z,8.79
2018-06-24T00:13:44.426Z,8.97
2018-06-24T00:14:44.402Z,8.95
2018-06-24T00:15:44.418Z,8.97
2018-06-24T00:16:44.374Z,9.06
2018-06-24T00:17:44.367Z,9.00
2018-06-24T00:18:44.359Z,8.94
2018-06-24T00:19:44.345Z,9.13
2018-06-24T00:20:44.332Z,9.08
2018-06-24T00:21:44.332Z,9.08
2018-06-24T00:22:44.315Z,9.14
2018-06-24T00:23:44.323Z,9.04
2018-06-24T00:24:44.296Z,9.04
2018-06-24T00:25:44.278Z,8.99
2018-06-24T00:26:44.269Z,9.00
2018-06-24T00:27:44.260Z,9.14
2018-06-24T00:28:44.276Z,9.13
2018-06-24T00:29:44.244Z,9.19
2018-06-24T00:30:44.229Z,9.23
2018-06-24T00:31:44.219Z,9.26
2018-06-24T00:32:44.211Z,9.23
2018-06-24T00:33:44.194Z,9.32
2018-06-24T00:34:44.188Z,9.26
2018-06-24T00:35:44.176Z,9.32
2018-06-24T00:36:44.167Z,9.43
2018-06-24T00:37:44.150Z,9.36
2018-06-24T00:38:44.143Z,9.40
2018-06-24T00:39:44.133Z,9.29
2018-06-24T00:40:44.118Z,9.44
2018-06-24T00:41:44.114Z,9.48
2018-06-24T00:42:44.100Z,9.43
2018-06-24T00:43:44.091Z,9.47
2018-06-24T00:44:44.084Z,9.51
2018-06-24T00:45:44.064Z,9.54
2018-06-24T00:46:44.057Z,9.54
2018-06-24T00:47:44.047Z,9.54
2018-06-24T00:48:44.037Z,9.62
2018-06-24T00:49:44.047Z,9.59
2018-06-24T00:50:44.025Z,9.56
2018-06-24T00:51:44.005Z,9.51
2018-06-24T00:52:44.003Z,9.58
2018-06-24T00:53:43.985Z,9.56
2018-06-24T00:54:44.016Z,9.59
2018-06-24T00:55:43.961Z,9.58
2018-06-24T00:56:43.953Z,9.61
2018-06-24T00:57:43.936Z,9.55
2018-06-24T00:58:43.927Z,9.51
2018-06-24T00:59:43.913Z,9.56
2018-06-24T01:00:43.908Z,9.56
2018-06-24T01:01:43.898Z,9.54
2018-06-24T01:02:43.888Z,9.55
2018-06-24T01:03:43.881Z,9.65
2018-06-24T01:04:43.865Z,9.64
2018-06-24T01:05:43.880Z,9.59
2018-06-24T01:06:43.838Z,9.56
2018-06-24T01:07:43.835Z,9.54
2018-06-24T01:08:43.823Z,9.65
2018-06-24T01:09:43.811Z,9.55
2018-06-24T01:10:43.795Z,9.66
2018-06-24T01:11:43.786Z,9.72
2018-06-24T01:12:43.778Z,9.68
2018-06-24T01:13:43.767Z,9.72
2018-06-24T01:14:43.759Z,9.77
2018-06-24T01:15:43.748Z,9.80
2018-06-24T01:16:43.740Z,9.84
2018-06-24T01:17:43.723Z,9.82
2018-06-24T01:18:43.710Z,9.83
2018-06-24T01:19:43.699Z,9.92
2018-06-24T01:20:43.691Z,9.91
2018-06-24T01:21:43.701Z,9.91
2018-06-24T01:22:43.694Z,9.84
2018-06-24T01:23:43.656Z,9.82
2018-06-24T01:24:43.647Z,9.86
2018-06-24T01:25:43.663Z,9.82
2018-06-24T01:26:43.658Z,9.76
2018-06-24T01:27:43.619Z,9.79
2018-06-24T01:28:43.606Z,9.68
2018-06-24T01:29:43.593Z,9.68
2018-06-24T01:30:43.580Z,9.76
2018-06-24T01:31:43.570Z,9.59
2018-06-24T01:32:43.564Z,9.68
2018-06-24T01:33:43.552Z,9.61
2018-06-24T01:34:43.543Z,9.54
2018-06-24T01:35:43.533Z,9.43
2018-06-24T01:36:43.519Z,9.50
2018-06-24T01:37:43.534Z,9.39
2018-06-24T01:38:43.493Z,9.32
2018-06-24T01:39:43.484Z,9.28
2018-06-24T01:40:43.471Z,9.14
2018-06-24T01:41:43.468Z,9.10
2018-06-24T01:42:43.454Z,9.13
2018-06-24T01:43:43.445Z,9.06
2018-06-24T01:44:43.438Z,9.04
2018-06-24T01:45:43.417Z,9.03
2018-06-24T01:46:43.409Z,9.02
2018-06-24T01:47:43.397Z,9.06
2018-06-24T01:48:43.385Z,8.87
2018-06-24T01:49:43.384Z,8.85
2018-06-24T01:50:43.368Z,8.73
2018-06-24T01:51:43.359Z,8.70
2018-06-24T01:52:43.349Z,8.70
2018-06-24T01:53:43.331Z,8.66
2018-06-24T01:54:43.352Z,8.63
2018-06-24T01:55:43.316Z,8.69
2018-06-24T01:56:43.306Z,8.66
2018-06-24T01:57:43.292Z,8.70
2018-06-24T01:58:43.279Z,8.71
2018-06-24T01:59:43.270Z,8.64
2018-06-24T02:00:43.258Z,8.69
2018-06-24T02:01:43.252Z,8.66
2018-06-24T02:02:43.240Z,8.73
2018-06-24T02:03:43.231Z,8.66
2018-06-24T02:04:43.220Z,8.63
2018-06-24T02:05:43.221Z,8.64
2018-06-24T02:06:43.195Z,8.69
2018-06-24T02:07:43.192Z,8.73
2018-06-24T02:08:43.174Z,8.67
2018-06-24T02:09:43.169Z,8.63
2018-06-24T02:10:43.156Z,8.61
2018-06-24T02:11:43.141Z,8.64
2018-06-24T02:12:43.128Z,8.67
2018-06-24T02:13:43.128Z,8.66
2018-06-24T02:14:43.111Z,8.67
2018-06-24T02:15:43.118Z,8.74
2018-06-24T02:16:43.095Z,8.73
2018-06-24T02:17:43.074Z,8.78
2018-06-24T02:18:43.067Z,8.82
2018-06-24T02:19:43.057Z,8.71
2018-06-24T02:20:43.043Z,8.84
2018-06-24T02:21:43.040Z,8.79
2018-06-24T02:22:43.034Z,8.89
2018-06-24T02:23:43.014Z,8.94
2018-06-24T02:24:43.005Z,8.91
2018-06-24T02:25:43.014Z,8.99
2018-06-24T02:26:42.980Z,8.99
2018-06-24T02:27:42.972Z,9.02
2018-06-24T02:28:42.967Z,9.06
2018-06-24T02:29:42.947Z,9.08
2018-06-24T02:30:42.943Z,9.18
2018-06-24T02:31:42.930Z,9.14
2018-06-24T02:32:42.916Z,9.21
2018-06-24T02:33:42.909Z,9.16
2018-06-24T02:34:42.899Z,9.25
2018-06-24T02:35:42.887Z,9.23
2018-06-24T02:36:42.902Z,9.22
2018-06-24T02:37:42.859Z,9.21
2018-06-24T02:38:42.850Z,9.28
2018-06-24T02:39:42.838Z,9.23
2018-06-24T02:40:42.825Z,9.23
2018-06-24T02:41:42.821Z,9.29
2018-06-24T02:42:42.811Z,9.26
2018-06-24T02:43:42.798Z,9.34
2018-06-24T02:44:42.783Z,9.31
2018-06-24T02:45:42.778Z,9.36
2018-06-24T02:46:42.767Z,9.36
2018-06-24T02:47:42.783Z,9.29
2018-06-24T02:48:42.747Z,9.39
2018-06-24T02:49:42.728Z,9.40
2018-06-24T02:50:42.720Z,9.47
2018-06-24T02:51:42.709Z,9.50
2018-06-24T02:52:42.696Z,9.46
2018-06-24T02:53:42.708Z,9.55
2018-06-24T02:54:42.682Z,9.56
2018-06-24T02:55:42.672Z,9.56
2018-06-24T02:56:42.676Z,9.61
2018-06-24T02:57:42.650Z,9.56
2018-06-24T02:58:42.664Z,9.59
2018-06-24T02:59:42.634Z,9.62
2018-06-24T03:00:42.643Z,9.61
2018-06-24T03:01:42.612Z,9.59
2018-06-24T03:02:42.593Z,9.62
2018-06-24T03:03:42.623Z,9.69
2018-06-24T03:04:42.567Z,9.77
2018-06-24T03:05:42.577Z,9.68
2018-06-24T03:06:42.551Z,9.80
2018-06-24T03:07:42.550Z,9.79
2018-06-24T03:08:42.537Z,9.83
2018-06-24T03:09:42.527Z,9.76
2018-06-24T03:10:42.505Z,9.82
2018-06-24T03:11:42.495Z,9.84
2018-06-24T03:12:42.487Z,9.82
2018-06-24T03:13:42.479Z,9.66
2018-06-24T03:14:42.500Z,9.83
2018-06-24T03:15:42.454Z,9.80
2018-06-24T03:16:42.439Z,9.84
2018-06-24T03:17:42.434Z,9.87
2018-06-24T03:18:42.422Z,9.92
2018-06-24T03:19:42.413Z,9.95
2018-06-24T03:20:42.403Z,9.94
2018-06-24T03:21:42.383Z,9.91
2018-06-24T03:22:42.387Z,9.98
2018-06-24T03:23:42.364Z,9.97
2018-06-24T03:24:42.362Z,9.99
2018-06-24T03:25:42.391Z,9.97
2018-06-24T03:26:42.334Z,9.86
2018-06-24T03:27:42.324Z,9.98
2018-06-24T03:28:42.315Z,10.02
2018-06-24T03:29:42.303Z,10.01
2018-06-24T03:30:42.290Z,9.95
2018-06-24T03:31:42.285Z,9.95
2018-06-24T03:32:42.274Z,9.99
2018-06-24T03:33:42.255Z,10.04
2018-06-24T03:34:42.246Z,10.07
2018-06-24T03:35:42.254Z,10.13
2018-06-24T03:36:42.265Z,10.04
2018-06-24T03:37:42.219Z,10.01
2018-06-24T03:38:42.212Z,10.15
2018-06-24T03:39:42.210Z,10.26
2018-06-24T03:40:42.188Z,10.22
2018-06-24T03:41:42.197Z,10.33
2018-06-24T03:42:42.165Z,10.31
2018-06-24T03:43:42.152Z,10.33
2018-06-24T03:44:42.138Z,10.42
2018-06-24T03:45:42.133Z,10.38
2018-06-24T03:46:42.120Z,10.48
2018-06-24T03:47:42.109Z,10.38
2018-06-24T03:48:42.095Z,10.49
2018-06-24T03:49:42.102Z,10.46
2018-06-24T03:50:42.092Z,10.49
2018-06-24T03:51:42.067Z,10.54
2018-06-24T03:52:42.076Z,10.60
2018-06-24T03:53:42.067Z,10.68
2018-06-24T03:54:42.037Z,10.59
2018-06-24T03:55:42.021Z,10.72
2018-06-24T03:56:42.008Z,10.76
2018-06-24T03:57:42.031Z,10.76
2018-06-24T03:58:41.992Z,10.75
2018-06-24T03:59:41.979Z,10.79
2018-06-24T04:00:41.970Z,10.87
2018-06-24T04:01:41.957Z,10.90
2018-06-24T04:02:41.945Z,10.96
2018-06-24T04:03:41.941Z,10.93
2018-06-24T04:04:41.984Z,10.94
2018-06-24T04:05:41.914Z,10.99
2018-06-24T04:06:41.901Z,11.02
2018-06-24T04:07:41.890Z,11.00
2018-06-24T04:08:41.905Z,11.10
2018-06-24T04:09:41.871Z,11.04
2018-06-24T04:10:41.861Z,11.11
2018-06-24T04:11:41.851Z,11.15
2018-06-24T04:12:41.840Z,11.17
2018-06-24T04:13:41.823Z,11.22
2018-06-24T04:14:41.816Z,11.25
2018-06-24T04:15:41.803Z,11.29
2018-06-24T04:16:41.789Z,11.26
2018-06-24T04:17:41.786Z,11.37
2018-06-24T04:18:41.776Z,11.36
2018-06-24T04:19:41.785Z,11.37
2018-06-24T04:20:41.749Z,11.44
2018-06-24T04:21:41.742Z,11.48
2018-06-24T04:22:41.733Z,11.55
2018-06-24T04:23:41.719Z,11.62
2018-06-24T04:24:41.711Z,11.63
2018-06-24T04:25:41.734Z,11.70
2018-06-24T04:26:41.685Z,11.75
2018-06-24T04:27:41.674Z,11.78
2018-06-24T04:28:41.661Z,11.84
2018-06-24T04:29:41.656Z,11.95
2018-06-24T04:30:41.646Z,11.87
2018-06-24T04:31:41.632Z,11.94
2018-06-24T04:32:41.623Z,11.87
2018-06-24T04:33:41.607Z,12.02
2018-06-24T04:34:41.599Z,12.03
2018-06-24T04:35:41.608Z,11.91
2018-06-24T04:36:41.581Z,11.99
2018-06-24T04:37:41.564Z,11.90
2018-06-24T04:38:41.558Z,11.95
2018-06-24T04:39:41.544Z,12.04
2018-06-24T04:40:41.566Z,12.09
2018-06-24T04:41:41.530Z,12.09
2018-06-24T04:42:41.515Z,12.07
2018-06-24T04:43:41.504Z,12.07
2018-06-24T04:44:41.495Z,12.12
2018-06-24T04:45:41.481Z,12.17
2018-06-24T04:46:41.472Z,12.15
2018-06-24T04:47:41.458Z,12.18
2018-06-24T04:48:41.447Z,12.24
2018-06-24T04:49:41.442Z,12.35
2018-06-24T04:50:41.429Z,12.35
2018-06-24T04:51:41.432Z,12.31
2018-06-24T04:52:41.404Z,12.39
2018-06-24T04:53:41.395Z,12.32
2018-06-24T04:54:41.387Z,12.42
2018-06-24T04:55:41.387Z,12.45
2018-06-24T04:56:41.396Z,12.46
2018-06-24T04:57:41.354Z,12.50
2018-06-24T04:58:41.341Z,12.64
2018-06-24T04:59:41.327Z,12.64
2018-06-24T05:00:41.324Z,12.67
2018-06-24T05:01:41.310Z,12.65
2018-06-24T05:02:41.300Z,12.75
2018-06-24T05:03:41.284Z,12.82
2018-06-24T05:04:41.275Z,12.87
2018-06-24T05:05:41.265Z,12.85
2018-06-24T05:06:41.262Z,12.86
2018-06-24T05:07:41.266Z,12.95
2018-06-24T05:08:41.237Z,12.87
2018-06-24T05:09:41.224Z,12.85
2018-06-24T05:10:41.217Z,12.91
2018-06-24T05:11:41.197Z,12.95
2018-06-24T05:12:41.218Z,12.97
2018-06-24T05:13:41.180Z,13.16
2018-06-24T05:14:41.170Z,13.18
2018-06-24T05:15:41.163Z,13.11
2018-06-24T05:16:41.142Z,13.18
2018-06-24T05:17:41.136Z,13.23
2018-06-24T05:18:41.132Z,13.22
2018-06-24T05:19:41.124Z,13.41
2018-06-24T05:20:41.108Z,13.47
2018-06-24T05:21:41.094Z,13.53
2018-06-24T05:22:41.085Z,13.62
2018-06-24T05:23:41.100Z,13.65
2018-06-24T05:24:41.062Z,13.72
2018-06-24T05:25:41.054Z,13.77
2018-06-24T05:26:41.052Z,13.83
2018-06-24T05:27:41.115Z,13.85
2018-06-24T05:28:41.023Z,13.85
2018-06-24T05:29:41.015Z,13.92
2018-06-24T05:30:41.000Z,13.99
2018-06-24T05:31:40.982Z,13.99
2018-06-24T05:32:40.976Z,13.97
2018-06-24T05:33:40.965Z,13.90
2018-06-24T05:34:40.977Z,14.10
2018-06-24T05:35:40.941Z,14.12
2018-06-24T05:36:40.928Z,14.23
2018-06-24T05:37:40.920Z,14.15
2018-06-24T05:38:40.910Z,14.23
2018-06-24T05:39:40.903Z,14.22
2018-06-24T05:40:40.893Z,14.33
2018-06-24T05:41:40.881Z,14.40
2018-06-24T05:42:40.884Z,14.40
2018-06-24T05:43:40.852Z,14.37
2018-06-24T05:44:40.840Z,14.37
2018-06-24T05:45:40.861Z,14.41
2018-06-24T05:46:40.830Z,14.54
2018-06-24T05:47:40.817Z,14.53
2018-06-24T05:48:40.804Z,14.53
2018-06-24T05:49:40.794Z,14.60
2018-06-24T05:50:40.791Z,14.54
2018-06-24T05:51:40.776Z,14.47
2018-06-24T05:52:40.768Z,14.58
2018-06-24T05:53:40.749Z,14.59
2018-06-24T05:54:40.739Z,14.53
2018-06-24T05:55:40.725Z,14.55
2018-06-24T05:56:40.731Z,14.63
2018-06-24T05:57:40.704Z,14.65
2018-06-24T05:58:40.698Z,14.63
2018-06-24T05:59:40.687Z,14.66
2018-06-24T06:00:40.676Z,14.73
2018-06-24T06:01:40.696Z,14.81
2018-06-24T06:02:40.656Z,14.92
2018-06-24T06:03:40.635Z,15.00
2018-06-24T06:04:40.632Z,15.02
2018-06-24T06:05:40.621Z,15.02
2018-06-24T06:06:40.605Z,15.02
2018-06-24T06:07:40.594Z,15.18
2018-06-24T06:08:40.585Z,15.18
2018-06-24T06:09:40.574Z,15.36
2018-06-24T06:10:40.564Z,15.44
2018-06-24T06:11:40.614Z,15.54
2018-06-24T06:12:40.563Z,15.52
2018-06-24T06:13:40.541Z,15.57
2018-06-24T06:14:40.518Z,15.55
2018-06-24T06:15:40.505Z,15.72
2018-06-24T06:16:40.494Z,15.67
2018-06-24T06:17:40.488Z,15.72
2018-06-24T06:18:40.477Z,15.88
2018-06-24T06:19:40.473Z,15.84
2018-06-24T06:20:40.451Z,15.82
2018-06-24T06:21:40.455Z,15.88
2018-06-24T06:22:40.457Z,15.97
2018-06-24T06:23:40.426Z,16.04
2018-06-24T06:24:40.416Z,16.13
2018-06-24T06:25:40.403Z,16.31
2018-06-24T06:26:40.388Z,16.29
2018-06-24T06:27:40.409Z,16.29
2018-06-24T06:28:40.364Z,16.33
2018-06-24T06:29:40.357Z,16.29
2018-06-24T06:30:40.348Z,16.23
2018-06-24T06:31:40.344Z,16.16
2018-06-24T06:32:40.327Z,16.24
2018-06-24T06:33:40.321Z,16.24
2018-06-24T06:34:40.303Z,16.15
2018-06-24T06:35:40.290Z,16.21
2018-06-24T06:36:40.330Z,16.12
2018-06-24T06:37:40.273Z,16.23
2018-06-24T06:38:40.292Z,16.21
2018-06-24T06:39:40.248Z,16.23
2018-06-24T06:40:40.236Z,16.10
2018-06-24T06:41:40.228Z,16.13
2018-06-24T06:42:40.225Z,16.20
2018-06-24T06:43:40.238Z,16.16
2018-06-24T06:44:40.201Z,16.10
2018-06-24T06:45:40.246Z,16.00
2018-06-24T06:46:40.178Z,16.00
2018-06-24T06:47:40.162Z,16.20
2018-06-24T06:48:40.156Z,16.32
2018-06-24T06:49:40.144Z,16.23
2018-06-24T06:50:40.136Z,16.23
2018-06-24T06:51:40.127Z,16.15
2018-06-24T06:52:40.115Z,16.31
2018-06-24T06:53:40.099Z,16.33
2018-06-24T06:54:40.118Z,16.41
2018-06-24T06:55:40.084Z,16.38
2018-06-24T06:56:40.073Z,16.39
2018-06-24T06:57:40.060Z,16.33
2018-06-24T06:58:40.052Z,16.41
2018-06-24T06:59:40.034Z,16.43
2018-06-24T07:00:40.053Z,16.42
2018-06-24T07:01:40.052Z,16.46
2018-06-24T07:02:40.007Z,16.54
2018-06-24T07:03:39.997Z,16.53
2018-06-24T07:04:39.987Z,16.46
2018-06-24T07:05:40.014Z,16.50
2018-06-24T07:06:39.972Z,16.39
2018-06-24T07:07:39.948Z,16.50
2018-06-24T07:08:39.944Z,16.50
2018-06-24T07:09:39.976Z,16.65
2018-06-24T07:10:40.094Z,16.65
2018-06-24T07:11:39.903Z,16.75
2018-06-24T07:12:39.893Z,16.53
2018-06-24T07:13:39.885Z,16.47
2018-06-24T07:14:39.877Z,16.41
2018-06-24T07:15:39.897Z,16.39
2018-06-24T07:16:39.859Z,16.24
2018-06-24T07:17:39.845Z,16.16
2018-06-24T07:18:39.834Z,16.00
2018-06-24T07:19:39.819Z,15.79
2018-06-24T07:20:39.862Z,15.77
2018-06-24T07:21:39.804Z,15.70
2018-06-24T07:22:39.791Z,15.67
2018-06-24T07:23:39.783Z,15.51
2018-06-24T07:24:39.815Z,15.52
2018-06-24T07:25:39.786Z,15.46
2018-06-24T07:26:39.776Z,15.37
2018-06-24T07:27:39.777Z,15.29
2018-06-24T07:28:39.731Z,15.36
2018-06-24T07:29:39.716Z,15.51
2018-06-24T07:30:39.703Z,15.49
2018-06-24T07:31:39.691Z,15.57
2018-06-24T07:32:39.681Z,15.67
2018-06-24T07:33:39.823Z,15.76
2018-06-24T07:34:39.662Z,15.72
2018-06-24T07:35:39.653Z,15.82
2018-06-24T07:36:39.643Z,15.80
2018-06-24T07:37:39.659Z,15.90
2018-06-24T07:38:39.662Z,15.94
2018-06-24T07:39:39.603Z,15.94
2018-06-24T07:40:39.617Z,15.94
2018-06-24T07:41:39.587Z,15.91
2018-06-24T07:42:39.575Z,15.88
2018-06-24T07:43:39.574Z,15.83
2018-06-24T07:44:39.550Z,15.72
2018-06-24T07:45:39.543Z,15.72
2018-06-24T07:46:39.539Z,15.72
2018-06-24T07:47:39.545Z,15.57
2018-06-24T07:48:39.534Z,15.65
2018-06-24T07:49:39.502Z,15.70
2018-06-24T07:50:39.485Z,15.77
2018-06-24T07:51:39.477Z,15.88
2018-06-24T07:52:39.467Z,15.86
2018-06-24T07:53:39.479Z,16.02
2018-06-24T07:54:39.449Z,16.13
2018-06-24T07:55:39.436Z,16.15
2018-06-24T07:56:39.423Z,16.29
2018-06-24T07:57:39.414Z,16.47
2018-06-24T07:58:39.406Z,16.68
2018-06-24T07:59:39.395Z,16.87
2018-06-24T08:00:39.382Z,17.01
2018-06-24T08:01:39.377Z,17.08
2018-06-24T08:02:39.356Z,17.12
2018-06-24T08:03:39.348Z,17.20
2018-06-24T08:04:39.363Z,17.24
2018-06-24T08:05:39.324Z,17.27
2018-06-24T08:06:39.321Z,17.36
2018-06-24T08:07:39.308Z,17.30
2018-06-24T08:08:39.297Z,17.23
2018-06-24T08:09:39.288Z,17.16
2018-06-24T08:10:39.273Z,17.12
2018-06-24T08:11:39.260Z,17.22
2018-06-24T08:12:39.257Z,17.14
2018-06-24T08:13:39.245Z,17.15
2018-06-24T08:14:39.228Z,17.22
2018-06-24T08:15:39.245Z,17.22
2018-06-24T08:16:39.213Z,17.16
2018-06-24T08:17:39.198Z,17.26
2018-06-24T08:18:39.192Z,17.24
2018-06-24T08:19:39.186Z,17.26
2018-06-24T08:20:39.186Z,17.20
2018-06-24T08:21:39.161Z,17.22
2018-06-24T08:22:39.143Z,17.09
2018-06-24T08:23:39.133Z,17.05
2018-06-24T08:24:39.121Z,17.19
2018-06-24T08:25:39.109Z,17.09
2018-06-24T08:26:39.151Z,16.91
2018-06-24T08:27:39.092Z,16.87
2018-06-24T08:28:39.082Z,17.02
2018-06-24T08:29:39.070Z,17.04
2018-06-24T08:30:39.064Z,17.05
2018-06-24T08:31:39.078Z,17.11
2018-06-24T08:32:39.055Z,17.14
2018-06-24T08:33:39.031Z,17.05
2018-06-24T08:34:39.023Z,17.15
2018-06-24T08:35:39.019Z,17.33
2018-06-24T08:36:38.996Z,17.34
2018-06-24T08:37:38.981Z,17.36
2018-06-24T08:38:39.024Z,17.52
2018-06-24T08:39:38.963Z,17.72
2018-06-24T08:40:38.961Z,17.68
2018-06-24T08:41:38.944Z,17.78
2018-06-24T08:42:38.953Z,17.83
2018-06-24T08:43:38.925Z,18.03
2018-06-24T08:44:38.909Z,18.13
2018-06-24T08:45:38.900Z,18.22
2018-06-24T08:46:38.884Z,18.45
2018-06-24T08:47:38.875Z,18.65
2018-06-24T08:48:38.867Z,18.62
2018-06-24T08:49:38.869Z,18.73
2018-06-24T08:50:38.850Z,18.93
2018-06-24T08:51:38.835Z,19.15
2018-06-24T08:52:38.826Z,19.14
2018-06-24T08:53:38.842Z,19.33
2018-06-24T08:54:38.798Z,19.34
2018-06-24T08:55:38.789Z,19.34
2018-06-24T08:56:38.791Z,19.64
2018-06-24T08:57:38.770Z,19.66
2018-06-24T08:58:38.763Z,19.56
2018-06-24T08:59:38.755Z,19.59
2018-06-24T09:00:38.775Z,19.36
2018-06-24T09:01:38.728Z,19.24
2018-06-24T09:02:38.722Z,19.12
2018-06-24T09:03:38.707Z,19.00
2018-06-24T09:04:38.716Z,19.04
2018-06-24T09:05:38.688Z,19.15
2018-06-24T09:06:38.673Z,19.27
2018-06-24T09:07:38.663Z,19.31
2018-06-24T09:08:38.653Z,19.21
2018-06-24T09:09:38.667Z,19.18
2018-06-24T09:10:38.638Z,19.14
2018-06-24T09:11:38.624Z,19.11
2018-06-24T09:12:38.613Z,18.93
2018-06-24T09:13:38.608Z,19.09
2018-06-24T09:14:38.592Z,19.04
2018-06-24T09:15:38.613Z,19.04
2018-06-24T09:16:38.570Z,19.07
2018-06-24T09:17:38.563Z,19.07
2018-06-24T09:18:38.544Z,18.88
2018-06-24T09:19:38.537Z,18.81
2018-06-24T09:20:38.544Z,18.86
2018-06-24T09:21:38.529Z,18.74
2018-06-24T09:22:38.509Z,18.71
2018-06-24T09:23:38.494Z,18.81
2018-06-24T09:24:38.486Z,18.96
2018-06-24T09:25:38.505Z,19.12
2018-06-24T09:26:38.457Z,19.24
2018-06-24T09:27:38.485Z,19.09
2018-06-24T09:28:38.439Z,19.14
2018-06-24T09:29:38.427Z,19.07
2018-06-24T09:30:38.425Z,18.93
2018-06-24T09:31:38.429Z,19.09
2018-06-24T09:32:38.429Z,19.12
2018-06-24T09:33:38.384Z,19.19
2018-06-24T09:34:38.448Z,19.39
2018-06-24T09:35:38.384Z,19.73
2018-06-24T09:36:38.397Z,19.74
2018-06-24T09:37:38.366Z,19.81
2018-06-24T09:38:38.331Z,19.77
2018-06-24T09:39:38.323Z,19.89
2018-06-24T09:40:38.313Z,20.00
2018-06-24T09:41:38.301Z,20.07
2018-06-24T09:42:38.298Z,20.11
2018-06-24T09:43:38.285Z,20.03
2018-06-24T09:44:38.277Z,20.09
2018-06-24T09:45:38.265Z,20.37
2018-06-24T09:46:38.248Z,20.25
2018-06-24T09:47:38.267Z,20.25
2018-06-24T09:48:38.234Z,20.03
2018-06-24T09:49:38.223Z,20.19
2018-06-24T09:50:38.211Z,20.21
2018-06-24T09:51:38.197Z,20.19
2018-06-24T09:52:38.187Z,20.25
2018-06-24T09:53:38.194Z,20.47
2018-06-24T09:54:38.173Z,20.48
2018-06-24T09:55:38.164Z,20.56
2018-06-24T09:56:38.148Z,20.74
2018-06-24T09:57:38.139Z,20.63
2018-06-24T09:58:38.123Z,20.43
2018-06-24T09:59:38.116Z,20.48
2018-06-24T10:00:38.102Z,20.25
2018-06-24T10:01:38.093Z,20.47
2018-06-24T10:02:38.086Z,20.32
2018-06-24T10:03:38.092Z,20.41
2018-06-24T10:04:38.061Z,20.50
2018-06-24T10:05:38.049Z,20.62
2018-06-24T10:06:38.044Z,20.52
2018-06-24T10:07:38.034Z,20.69
2018-06-24T10:08:38.047Z,20.92
2018-06-24T10:09:38.023Z,20.96
2018-06-24T10:10:37.995Z,21.03
2018-06-24T10:11:37.986Z,20.90
2018-06-24T10:12:37.976Z,20.87
2018-06-24T10:13:37.970Z,20.93
2018-06-24T10:14:37.961Z,20.90
2018-06-24T10:15:37.948Z,20.81
2018-06-24T10:16:37.937Z,20.47
2018-06-24T10:17:37.928Z,20.47
2018-06-24T10:18:37.911Z,20.56
2018-06-24T10:19:37.980Z,20.72
2018-06-24T10:20:37.893Z,20.70
2018-06-24T10:21:37.884Z,20.90
2018-06-24T10:22:37.870Z,21.32
2018-06-24T10:23:37.860Z,21.27
2018-06-24T10:24:37.850Z,21.15
2018-06-24T10:25:37.843Z,21.35
2018-06-24T10:26:37.833Z,21.22
2018-06-24T10:27:37.820Z,21.06
2018-06-24T10:28:37.814Z,21.12
2018-06-24T10:29:37.803Z,21.07
2018-06-24T10:30:37.817Z,21.20
2018-06-24T10:31:37.781Z,21.18
2018-06-24T10:32:37.766Z,21.30
2018-06-24T10:33:37.756Z,21.27
2018-06-24T10:34:37.751Z,21.30
2018-06-24T10:35:37.737Z,21.24
2018-06-24T10:36:37.730Z,20.99
2018-06-24T10:37:37.711Z,20.96
2018-06-24T10:38:37.708Z,20.70
2018-06-24T10:39:37.695Z,20.75
2018-06-24T10:40:37.685Z,20.69
2018-06-24T10:41:37.695Z,20.50
2018-06-24T10:42:37.667Z,20.44
2018-06-24T10:43:37.650Z,20.55
2018-06-24T10:44:37.639Z,20.62
2018-06-24T10:45:37.627Z,20.85
2018-06-24T10:46:37.645Z,21.02
2018-06-24T10:47:37.609Z,21.21
2018-06-24T10:48:37.600Z,21.37
2018-06-24T10:49:37.592Z,21.37
2018-06-24T10:50:37.574Z,21.67
2018-06-24T10:51:37.592Z,22.13
2018-06-24T10:52:37.562Z,22.14
2018-06-24T10:53:37.550Z,22.11
2018-06-24T10:54:37.559Z,22.04
2018-06-24T10:55:37.528Z,22.00
2018-06-24T10:56:37.538Z,22.20
2018-06-24T10:57:37.508Z,22.39
2018-06-24T10:58:37.500Z,22.53
2018-06-24T10:59:37.492Z,22.14
2018-06-24T11:00:37.476Z,21.57
2018-06-24T11:01:37.479Z,21.21
2018-06-24T11:02:37.487Z,21.37
2018-06-24T11:03:37.444Z,21.29
2018-06-24T11:04:37.434Z,21.54
2018-06-24T11:05:37.422Z,21.72
2018-06-24T11:06:37.419Z,21.55
2018-06-24T11:07:37.405Z,21.51
2018-06-24T11:08:37.395Z,21.70
2018-06-24T11:09:37.383Z,21.85
2018-06-24T11:10:37.378Z,21.96
2018-06-24T11:11:37.367Z,22.02
2018-06-24T11:12:37.360Z,22.38
2018-06-24T11:13:37.374Z,22.45
2018-06-24T11:14:37.331Z,22.25
2018-06-24T11:15:37.322Z,22.38
2018-06-24T11:16:37.313Z,22.15
2018-06-24T11:17:37.300Z,21.98
2018-06-24T11:18:37.297Z,21.66
2018-06-24T11:19:37.287Z,21.46
2018-06-24T11:20:37.275Z,21.15
2018-06-24T11:21:37.268Z,21.15
2018-06-24T11:22:37.249Z,21.02
2018-06-24T11:23:37.244Z,21.02
2018-06-24T11:24:37.250Z,20.93
2018-06-24T11:25:37.238Z,21.00
2018-06-24T11:26:37.207Z,20.77
2018-06-24T11:27:37.201Z,20.67
2018-06-24T11:28:37.189Z,20.34
2018-06-24T11:29:37.199Z,20.29
2018-06-24T11:30:37.170Z,20.29
2018-06-24T11:31:37.173Z,20.43
2018-06-24T11:32:37.147Z,20.37
2018-06-24T11:33:37.151Z,20.44
2018-06-24T11:34:37.123Z,20.37
2018-06-24T11:35:37.118Z,20.21
2018-06-24T11:36:37.109Z,20.07
2018-06-24T11:37:37.091Z,20.07
2018-06-24T11:38:37.088Z,19.92
2018-06-24T11:39:37.075Z,19.86
2018-06-24T11:40:37.091Z,19.67
2018-06-24T11:41:37.051Z,19.66
2018-06-24T11:42:37.045Z,19.51
2018-06-24T11:43:37.042Z,19.54
2018-06-24T11:44:37.022Z,19.48
2018-06-24T11:45:37.017Z,19.59
2018-06-24T11:46:36.999Z,19.44
2018-06-24T11:47:36.988Z,19.22
2018-06-24T11:48:36.977Z,19.14
2018-06-24T11:49:36.970Z,19.04
2018-06-24T11:50:36.960Z,19.11
2018-06-24T11:51:36.965Z,19.02
2018-06-24T11:52:36.936Z,19.07
2018-06-24T11:53:36.927Z,19.15
2018-06-24T11:54:36.909Z,18.95
2018-06-24T11:55:36.901Z,18.93
2018-06-24T11:56:36.900Z,19.19
2018-06-24T11:57:36.882Z,19.16
2018-06-24T11:58:36.867Z,19.18
2018-06-24T11:59:36.856Z,19.19
2018-06-24T12:00:36.846Z,19.29
2018-06-24T12:01:36.857Z,19.39
2018-06-24T12:02:36.930Z,19.22
2018-06-24T12:03:36.816Z,19.21
2018-06-24T12:04:36.809Z,19.33
2018-06-24T12:05:36.795Z,19.45
2018-06-24T12:06:36.801Z,19.30
2018-06-24T12:07:36.770Z,19.18
2018-06-24T12:08:36.764Z,19.02
2018-06-24T12:09:36.751Z,19.14
2018-06-24T12:10:36.743Z,19.09
2018-06-24T12:11:36.762Z,19.09
2018-06-24T12:12:36.717Z,19.08
2018-06-24T12:13:36.710Z,19.09
2018-06-24T12:14:36.701Z,18.83
2018-06-24T12:15:36.713Z,18.86
2018-06-24T12:16:36.683Z,18.96
2018-06-24T12:17:36.675Z,18.81
2018-06-24T12:18:36.658Z,18.92
2018-06-24T12:19:36.647Z,18.93
2018-06-24T12:20:36.634Z,18.81
2018-06-24T12:21:36.627Z,18.88
2018-06-24T12:22:36.651Z,19.04
2018-06-24T12:23:36.611Z,19.02
2018-06-24T12:24:36.600Z,19.07
2018-06-24T12:25:36.588Z,19.11
2018-06-24T12:26:36.575Z,18.99
2018-06-24T12:27:36.563Z,18.96
2018-06-24T12:28:36.561Z,18.92
2018-06-24T12:29:36.586Z,18.90
2018-06-24T12:30:36.554Z,18.84
2018-06-24T12:31:36.525Z,18.84
2018-06-24T12:32:36.536Z,18.77
2018-06-24T12:33:36.521Z,18.70
2018-06-24T12:34:36.491Z,18.74
2018-06-24T12:35:36.481Z,18.73
2018-06-24T12:36:36.471Z,18.83
2018-06-24T12:37:36.459Z,18.88
2018-06-24T12:38:36.474Z,18.93
2018-06-24T12:39:36.432Z,18.93
2018-06-24T12:40:36.421Z,19.00
2018-06-24T12:41:36.413Z,19.11
2018-06-24T12:42:36.405Z,19.00
2018-06-24T12:43:36.396Z,18.90
2018-06-24T12:44:36.381Z,18.84
2018-06-24T12:45:36.370Z,18.65
2018-06-24T12:46:36.362Z,18.53
2018-06-24T12:47:36.355Z,18.52
2018-06-24T12:48:36.343Z,18.55
2018-06-24T12:49:36.358Z,18.50
2018-06-24T12:50:36.318Z,18.44
2018-06-24T12:51:36.304Z,18.25
2018-06-24T12:52:36.292Z,18.26
2018-06-24T12:53:36.284Z,18.23
2018-06-24T12:54:36.276Z,18.18
2018-06-24T12:55:36.269Z,18.15
2018-06-24T12:56:36.257Z,17.95
2018-06-24T12:57:36.243Z,18.00
2018-06-24T12:58:36.242Z,17.95
2018-06-24T12:59:36.542Z,17.80